sensor_id;sensor_type;location;lat;lon;timestamp;temperature;humidity
68450;SHT30;67758;39.572;2.652;2023-07-31T00:00:08;28.35;83.77
68450;SHT30;67758;39.572;2.652;2023-07-31T00:02:36;28.40;83.68
68450;SHT30;67758;39.572;2.652;2023-07-31T00:05:02;28.42;83.58
68450;SHT30;67758;39.572;2.652;2023-07-31T00:07:28;28.43;83.52
68450;SHT30;67758;39.572;2.652;2023-07-31T00:09:53;28.46;83.49
68450;SHT30;67758;39.572;2.652;2023-07-31T00:12:22;28.50;83.23
68450;SHT30;67758;39.572;2.652;2023-07-31T00:14:48;28.52;83.17
68450;SHT30;67758;39.572;2.652;2023-07-31T00:17:14;28.52;83.26
68450;SHT30;67758;39.572;2.652;2023-07-31T00:19:40;28.52;83.24
68450;SHT30;67758;39.572;2.652;2023-07-31T00:22:05;28.55;83.20
68450;SHT30;67758;39.572;2.652;2023-07-31T00:24:31;28.57;83.13
68450;SHT30;67758;39.572;2.652;2023-07-31T00:26:56;28.43;83.63
68450;SHT30;67758;39.572;2.652;2023-07-31T00:29:22;28.52;83.05
68450;SHT30;67758;39.572;2.652;2023-07-31T00:31:48;28.50;83.23
68450;SHT30;67758;39.572;2.652;2023-07-31T00:34:13;28.52;83.20
68450;SHT30;67758;39.572;2.652;2023-07-31T00:36:39;28.53;83.20
68450;SHT30;67758;39.572;2.652;2023-07-31T00:39:05;28.56;83.16
68450;SHT30;67758;39.572;2.652;2023-07-31T00:41:30;28.60;82.96
68450;SHT30;67758;39.572;2.652;2023-07-31T00:43:56;28.55;83.34
68450;SHT30;67758;39.572;2.652;2023-07-31T00:46:22;28.57;82.94
68450;SHT30;67758;39.572;2.652;2023-07-31T00:48:48;28.57;82.36
68450;SHT30;67758;39.572;2.652;2023-07-31T00:51:14;28.53;81.81
68450;SHT30;67758;39.572;2.652;2023-07-31T00:53:40;28.40;82.00
68450;SHT30;67758;39.572;2.652;2023-07-31T00:56:06;28.39;81.67
68450;SHT30;67758;39.572;2.652;2023-07-31T00:58:31;28.38;81.56
68450;SHT30;67758;39.572;2.652;2023-07-31T01:00:57;28.39;81.53
68450;SHT30;67758;39.572;2.652;2023-07-31T01:03:23;28.38;81.38
68450;SHT30;67758;39.572;2.652;2023-07-31T01:08:48;28.45;81.47
68450;SHT30;67758;39.572;2.652;2023-07-31T01:11:27;28.49;81.25
68450;SHT30;67758;39.572;2.652;2023-07-31T01:13:57;28.45;80.74
68450;SHT30;67758;39.572;2.652;2023-07-31T01:16:24;28.31;80.84
68450;SHT30;67758;39.572;2.652;2023-07-31T01:18:53;28.22;80.94
68450;SHT30;67758;39.572;2.652;2023-07-31T01:21:58;28.10;81.29
68450;SHT30;67758;39.572;2.652;2023-07-31T01:24:35;28.23;81.21
68450;SHT30;67758;39.572;2.652;2023-07-31T01:27:23;28.19;81.16
68450;SHT30;67758;39.572;2.652;2023-07-31T01:30:00;28.18;81.19
68450;SHT30;67758;39.572;2.652;2023-07-31T01:32:28;28.23;81.12
68450;SHT30;67758;39.572;2.652;2023-07-31T01:34:55;28.26;80.84
68450;SHT30;67758;39.572;2.652;2023-07-31T01:37:21;28.12;81.18
68450;SHT30;67758;39.572;2.652;2023-07-31T01:39:51;28.31;80.60
68450;SHT30;67758;39.572;2.652;2023-07-31T01:42:17;28.38;80.37
68450;SHT30;67758;39.572;2.652;2023-07-31T01:44:43;28.36;80.54
68450;SHT30;67758;39.572;2.652;2023-07-31T01:47:08;28.40;80.53
68450;SHT30;67758;39.572;2.652;2023-07-31T01:49:34;28.39;80.44
68450;SHT30;67758;39.572;2.652;2023-07-31T01:51:59;28.43;80.46
68450;SHT30;67758;39.572;2.652;2023-07-31T01:54:25;28.50;80.37
68450;SHT30;67758;39.572;2.652;2023-07-31T01:56:51;28.52;80.42
68450;SHT30;67758;39.572;2.652;2023-07-31T01:59:16;28.47;80.50
68450;SHT30;67758;39.572;2.652;2023-07-31T02:01:42;28.53;80.31
68450;SHT30;67758;39.572;2.652;2023-07-31T02:04:07;28.49;80.41
68450;SHT30;67758;39.572;2.652;2023-07-31T02:06:33;28.31;81.30
68450;SHT30;67758;39.572;2.652;2023-07-31T02:08:59;28.28;81.68
68450;SHT30;67758;39.572;2.652;2023-07-31T02:11:24;28.28;81.20
68450;SHT30;67758;39.572;2.652;2023-07-31T02:13:50;28.18;81.28
68450;SHT30;67758;39.572;2.652;2023-07-31T02:16:15;28.32;80.97
68450;SHT30;67758;39.572;2.652;2023-07-31T02:18:41;28.31;80.86
68450;SHT30;67758;39.572;2.652;2023-07-31T02:21:07;28.25;80.74
68450;SHT30;67758;39.572;2.652;2023-07-31T02:23:32;28.18;80.97
68450;SHT30;67758;39.572;2.652;2023-07-31T02:25:58;28.16;80.78
68450;SHT30;67758;39.572;2.652;2023-07-31T02:28:23;28.15;80.64
68450;SHT30;67758;39.572;2.652;2023-07-31T02:30:50;28.12;80.88
68450;SHT30;67758;39.572;2.652;2023-07-31T02:33:15;28.16;80.62
68450;SHT30;67758;39.572;2.652;2023-07-31T02:35:41;28.04;80.83
68450;SHT30;67758;39.572;2.652;2023-07-31T02:38:07;27.99;81.06
68450;SHT30;67758;39.572;2.652;2023-07-31T02:40:33;27.87;81.45
68450;SHT30;67758;39.572;2.652;2023-07-31T02:42:58;27.85;81.73
68450;SHT30;67758;39.572;2.652;2023-07-31T02:45:24;27.96;81.24
68450;SHT30;67758;39.572;2.652;2023-07-31T02:47:49;28.05;81.02
68450;SHT30;67758;39.572;2.652;2023-07-31T02:50:15;27.89;81.62
68450;SHT30;67758;39.572;2.652;2023-07-31T02:52:40;27.68;82.39
68450;SHT30;67758;39.572;2.652;2023-07-31T02:55:06;27.62;82.70
68450;SHT30;67758;39.572;2.652;2023-07-31T02:57:32;27.54;83.00
68450;SHT30;67758;39.572;2.652;2023-07-31T02:59:58;27.68;82.46
68450;SHT30;67758;39.572;2.652;2023-07-31T03:02:23;27.58;82.86
68450;SHT30;67758;39.572;2.652;2023-07-31T03:04:49;27.55;83.01
68450;SHT30;67758;39.572;2.652;2023-07-31T03:07:14;27.53;83.11
68450;SHT30;67758;39.572;2.652;2023-07-31T03:09:40;27.46;83.23
68450;SHT30;67758;39.572;2.652;2023-07-31T03:12:06;27.55;82.89
68450;SHT30;67758;39.572;2.652;2023-07-31T03:14:32;27.57;82.97
68450;SHT30;67758;39.572;2.652;2023-07-31T03:16:59;27.53;83.12
68450;SHT30;67758;39.572;2.652;2023-07-31T03:19:24;27.65;82.64
68450;SHT30;67758;39.572;2.652;2023-07-31T03:21:50;27.62;82.83
68450;SHT30;67758;39.572;2.652;2023-07-31T03:24:16;27.51;83.09
68450;SHT30;67758;39.572;2.652;2023-07-31T03:26:41;27.55;83.05
68450;SHT30;67758;39.572;2.652;2023-07-31T03:29:08;27.57;83.08
68450;SHT30;67758;39.572;2.652;2023-07-31T03:31:33;27.47;83.21
68450;SHT30;67758;39.572;2.652;2023-07-31T03:33:59;27.64;82.77
68450;SHT30;67758;39.572;2.652;2023-07-31T03:36:24;27.69;82.54
68450;SHT30;67758;39.572;2.652;2023-07-31T03:38:51;27.58;82.88
68450;SHT30;67758;39.572;2.652;2023-07-31T03:41:17;27.59;82.88
68450;SHT30;67758;39.572;2.652;2023-07-31T03:43:43;27.67;82.76
68450;SHT30;67758;39.572;2.652;2023-07-31T03:46:08;27.64;82.77
68450;SHT30;67758;39.572;2.652;2023-07-31T03:48:34;27.65;82.67
68450;SHT30;67758;39.572;2.652;2023-07-31T03:50:59;27.67;82.62
68450;SHT30;67758;39.572;2.652;2023-07-31T03:53:25;27.62;82.76
68450;SHT30;67758;39.572;2.652;2023-07-31T03:55:51;27.71;82.45
68450;SHT30;67758;39.572;2.652;2023-07-31T03:58:16;27.53;83.09
68450;SHT30;67758;39.572;2.652;2023-07-31T04:00:42;27.61;82.78
68450;SHT30;67758;39.572;2.652;2023-07-31T04:03:07;27.74;82.40
68450;SHT30;67758;39.572;2.652;2023-07-31T04:05:33;27.65;82.66
68450;SHT30;67758;39.572;2.652;2023-07-31T04:08:03;27.61;82.74
68450;SHT30;67758;39.572;2.652;2023-07-31T04:10:28;27.67;82.43
68450;SHT30;67758;39.572;2.652;2023-07-31T04:12:55;27.77;82.29
68450;SHT30;67758;39.572;2.652;2023-07-31T04:15:20;27.69;82.33
68450;SHT30;67758;39.572;2.652;2023-07-31T04:17:46;27.82;82.10
68450;SHT30;67758;39.572;2.652;2023-07-31T04:20:11;27.88;81.85
68450;SHT30;67758;39.572;2.652;2023-07-31T04:22:37;27.78;82.02
68450;SHT30;67758;39.572;2.652;2023-07-31T04:25:03;27.74;82.10
68450;SHT30;67758;39.572;2.652;2023-07-31T04:27:28;27.64;82.33
68450;SHT30;67758;39.572;2.652;2023-07-31T04:29:54;27.59;82.71
68450;SHT30;67758;39.572;2.652;2023-07-31T04:32:19;27.68;82.46
68450;SHT30;67758;39.572;2.652;2023-07-31T04:34:46;27.69;82.46
68450;SHT30;67758;39.572;2.652;2023-07-31T04:37:11;27.65;82.82
68450;SHT30;67758;39.572;2.652;2023-07-31T04:39:37;27.57;83.21
68450;SHT30;67758;39.572;2.652;2023-07-31T04:42:03;27.62;82.99
68450;SHT30;67758;39.572;2.652;2023-07-31T04:44:29;27.64;83.02
68450;SHT30;67758;39.572;2.652;2023-07-31T04:46:55;27.72;82.71
68450;SHT30;67758;39.572;2.652;2023-07-31T04:49:20;27.59;83.20
68450;SHT30;67758;39.572;2.652;2023-07-31T04:51:47;27.46;83.71
68450;SHT30;67758;39.572;2.652;2023-07-31T04:54:13;27.55;83.40
68450;SHT30;67758;39.572;2.652;2023-07-31T04:56:40;27.47;83.72
68450;SHT30;67758;39.572;2.652;2023-07-31T04:59:06;27.46;83.79
68450;SHT30;67758;39.572;2.652;2023-07-31T05:01:32;27.46;83.75
68450;SHT30;67758;39.572;2.652;2023-07-31T05:03:58;27.53;83.57
68450;SHT30;67758;39.572;2.652;2023-07-31T05:06:23;27.71;82.94
68450;SHT30;67758;39.572;2.652;2023-07-31T05:08:49;27.75;82.65
68450;SHT30;67758;39.572;2.652;2023-07-31T05:11:15;27.77;82.54
68450;SHT30;67758;39.572;2.652;2023-07-31T05:13:41;27.74;82.53
68450;SHT30;67758;39.572;2.652;2023-07-31T05:16:06;27.59;82.99
68450;SHT30;67758;39.572;2.652;2023-07-31T05:18:32;27.72;82.64
68450;SHT30;67758;39.572;2.652;2023-07-31T05:20:57;27.72;82.55
68450;SHT30;67758;39.572;2.652;2023-07-31T05:23:23;27.82;82.13
68450;SHT30;67758;39.572;2.652;2023-07-31T05:25:48;27.88;81.89
68450;SHT30;67758;39.572;2.652;2023-07-31T05:28:14;27.87;81.78
68450;SHT30;67758;39.572;2.652;2023-07-31T05:30:40;27.78;82.29
68450;SHT30;67758;39.572;2.652;2023-07-31T05:33:05;27.78;82.16
68450;SHT30;67758;39.572;2.652;2023-07-31T05:35:31;27.69;82.70
68450;SHT30;67758;39.572;2.652;2023-07-31T05:37:56;27.51;83.46
68450;SHT30;67758;39.572;2.652;2023-07-31T05:40:22;27.55;83.31
68450;SHT30;67758;39.572;2.652;2023-07-31T05:42:48;27.58;83.19
68450;SHT30;67758;39.572;2.652;2023-07-31T05:45:13;27.69;82.64
68450;SHT30;67758;39.572;2.652;2023-07-31T05:47:39;27.82;82.03
68450;SHT30;67758;39.572;2.652;2023-07-31T05:50:05;27.74;82.09
68450;SHT30;67758;39.572;2.652;2023-07-31T05:52:31;27.71;82.88
68450;SHT30;67758;39.572;2.652;2023-07-31T05:54:56;27.81;82.15
68450;SHT30;67758;39.572;2.652;2023-07-31T05:57:22;27.87;81.92
68450;SHT30;67758;39.572;2.652;2023-07-31T05:59:48;27.95;81.91
68450;SHT30;67758;39.572;2.652;2023-07-31T06:02:13;27.82;81.77
68450;SHT30;67758;39.572;2.652;2023-07-31T06:04:39;27.77;81.96
68450;SHT30;67758;39.572;2.652;2023-07-31T06:07:05;28.02;81.53
68450;SHT30;67758;39.572;2.652;2023-07-31T06:09:30;28.26;80.75
68450;SHT30;67758;39.572;2.652;2023-07-31T06:11:56;28.40;80.03
68450;SHT30;67758;39.572;2.652;2023-07-31T06:14:22;28.26;80.48
68450;SHT30;67758;39.572;2.652;2023-07-31T06:16:47;28.40;80.16
68450;SHT30;67758;39.572;2.652;2023-07-31T06:19:13;28.39;80.05
68450;SHT30;67758;39.572;2.652;2023-07-31T06:21:39;28.25;80.48
68450;SHT30;67758;39.572;2.652;2023-07-31T06:24:08;27.94;81.26
68450;SHT30;67758;39.572;2.652;2023-07-31T06:26:33;28.01;80.82
68450;SHT30;67758;39.572;2.652;2023-07-31T06:28:59;28.22;80.42
68450;SHT30;67758;39.572;2.652;2023-07-31T06:31:24;28.01;81.04
68450;SHT30;67758;39.572;2.652;2023-07-31T06:33:52;27.98;81.14
68450;SHT30;67758;39.572;2.652;2023-07-31T06:36:18;28.20;80.73
68450;SHT30;67758;39.572;2.652;2023-07-31T06:38:45;28.23;80.29
68450;SHT30;67758;39.572;2.652;2023-07-31T06:41:10;28.46;79.70
68450;SHT30;67758;39.572;2.652;2023-07-31T06:43:37;28.25;79.98
68450;SHT30;67758;39.572;2.652;2023-07-31T06:46:06;28.16;80.25
68450;SHT30;67758;39.572;2.652;2023-07-31T06:48:33;28.23;80.29
68450;SHT30;67758;39.572;2.652;2023-07-31T06:51:00;28.22;80.14
68450;SHT30;67758;39.572;2.652;2023-07-31T06:53:25;28.29;80.10
68450;SHT30;67758;39.572;2.652;2023-07-31T06:55:51;28.28;79.85
68450;SHT30;67758;39.572;2.652;2023-07-31T06:58:17;28.36;79.53
68450;SHT30;67758;39.572;2.652;2023-07-31T07:00:43;28.53;79.11
68450;SHT30;67758;39.572;2.652;2023-07-31T07:03:08;28.61;78.74
68450;SHT30;67758;39.572;2.652;2023-07-31T07:05:34;28.70;78.34
68450;SHT30;67758;39.572;2.652;2023-07-31T07:07:59;28.80;77.98
68450;SHT30;67758;39.572;2.652;2023-07-31T07:10:25;28.87;77.19
68450;SHT30;67758;39.572;2.652;2023-07-31T07:12:51;28.97;76.93
68450;SHT30;67758;39.572;2.652;2023-07-31T07:15:16;29.06;76.55
68450;SHT30;67758;39.572;2.652;2023-07-31T07:17:42;29.14;76.62
68450;SHT30;67758;39.572;2.652;2023-07-31T07:20:08;29.17;75.46
68450;SHT30;67758;39.572;2.652;2023-07-31T07:22:34;29.27;75.53
68450;SHT30;67758;39.572;2.652;2023-07-31T07:24:59;29.37;75.50
68450;SHT30;67758;39.572;2.652;2023-07-31T07:27:25;29.32;74.97
68450;SHT30;67758;39.572;2.652;2023-07-31T07:29:51;29.31;74.50
68450;SHT30;67758;39.572;2.652;2023-07-31T07:32:18;29.66;74.22
68450;SHT30;67758;39.572;2.652;2023-07-31T07:34:43;29.73;73.84
68450;SHT30;67758;39.572;2.652;2023-07-31T07:37:09;29.48;73.75
68450;SHT30;67758;39.572;2.652;2023-07-31T07:39:35;29.42;73.95
68450;SHT30;67758;39.572;2.652;2023-07-31T07:42:00;29.59;73.72
68450;SHT30;67758;39.572;2.652;2023-07-31T07:44:29;29.75;73.31
68450;SHT30;67758;39.572;2.652;2023-07-31T07:46:54;30.16;72.10
68450;SHT30;67758;39.572;2.652;2023-07-31T07:49:20;30.00;71.78
68450;SHT30;67758;39.572;2.652;2023-07-31T07:51:48;30.22;71.69
68450;SHT30;67758;39.572;2.652;2023-07-31T07:54:14;30.09;71.67
68450;SHT30;67758;39.572;2.652;2023-07-31T07:56:39;30.00;72.12
68450;SHT30;67758;39.572;2.652;2023-07-31T07:59:05;30.09;71.71
68450;SHT30;67758;39.572;2.652;2023-07-31T08:01:30;30.33;70.85
68450;SHT30;67758;39.572;2.652;2023-07-31T08:03:57;30.48;70.21
68450;SHT30;67758;39.572;2.652;2023-07-31T08:06:23;30.50;69.99
68450;SHT30;67758;39.572;2.652;2023-07-31T08:08:49;30.26;70.98
68450;SHT30;67758;39.572;2.652;2023-07-31T08:11:15;30.37;70.69
68450;SHT30;67758;39.572;2.652;2023-07-31T08:13:40;30.26;70.66
68450;SHT30;67758;39.572;2.652;2023-07-31T08:16:06;30.32;70.74
68450;SHT30;67758;39.572;2.652;2023-07-31T08:18:32;30.32;70.30
68450;SHT30;67758;39.572;2.652;2023-07-31T08:20:58;30.30;70.06
68450;SHT30;67758;39.572;2.652;2023-07-31T08:23:24;30.47;69.93
68450;SHT30;67758;39.572;2.652;2023-07-31T08:25:49;30.22;69.78
68450;SHT30;67758;39.572;2.652;2023-07-31T08:28:16;30.20;69.75
68450;SHT30;67758;39.572;2.652;2023-07-31T08:30:42;30.29;69.74
68450;SHT30;67758;39.572;2.652;2023-07-31T08:33:08;30.09;70.05
68450;SHT30;67758;39.572;2.652;2023-07-31T08:35:33;30.06;70.50
68450;SHT30;67758;39.572;2.652;2023-07-31T08:37:59;30.03;69.83
68450;SHT30;67758;39.572;2.652;2023-07-31T08:40:25;29.99;70.76
68450;SHT30;67758;39.572;2.652;2023-07-31T08:42:54;29.89;70.29
68450;SHT30;67758;39.572;2.652;2023-07-31T08:45:22;29.95;70.06
68450;SHT30;67758;39.572;2.652;2023-07-31T08:47:51;29.92;70.40
68450;SHT30;67758;39.572;2.652;2023-07-31T08:50:18;29.88;70.28
68450;SHT30;67758;39.572;2.652;2023-07-31T08:52:46;29.66;70.22
68450;SHT30;67758;39.572;2.652;2023-07-31T08:55:12;29.73;70.57
68450;SHT30;67758;39.572;2.652;2023-07-31T08:57:38;29.52;70.35
68450;SHT30;67758;39.572;2.652;2023-07-31T09:00:05;29.61;70.44
68450;SHT30;67758;39.572;2.652;2023-07-31T09:02:56;29.79;70.23
68450;SHT30;67758;39.572;2.652;2023-07-31T09:05:23;29.85;69.79
68450;SHT30;67758;39.572;2.652;2023-07-31T09:07:50;29.85;70.72
68450;SHT30;67758;39.572;2.652;2023-07-31T09:10:16;29.98;70.57
68450;SHT30;67758;39.572;2.652;2023-07-31T09:12:42;29.95;70.19
68450;SHT30;67758;39.572;2.652;2023-07-31T09:15:08;29.95;69.58
68450;SHT30;67758;39.572;2.652;2023-07-31T09:17:35;30.10;69.38
68450;SHT30;67758;39.572;2.652;2023-07-31T09:20:19;30.27;68.46
68450;SHT30;67758;39.572;2.652;2023-07-31T09:22:48;30.36;67.83
68450;SHT30;67758;39.572;2.652;2023-07-31T09:30:22;30.37;67.44
68450;SHT30;67758;39.572;2.652;2023-07-31T09:32:49;30.48;67.85
68450;SHT30;67758;39.572;2.652;2023-07-31T09:37:41;30.50;67.17
68450;SHT30;67758;39.572;2.652;2023-07-31T09:40:06;30.36;67.72
68450;SHT30;67758;39.572;2.652;2023-07-31T09:42:34;30.40;67.93
68450;SHT30;67758;39.572;2.652;2023-07-31T09:45:07;30.78;67.15
68450;SHT30;67758;39.572;2.652;2023-07-31T09:47:34;30.77;66.96
68450;SHT30;67758;39.572;2.652;2023-07-31T09:49:59;30.54;67.31
68450;SHT30;67758;39.572;2.652;2023-07-31T09:52:26;30.40;67.78
68450;SHT30;67758;39.572;2.652;2023-07-31T09:54:52;30.57;67.52
68450;SHT30;67758;39.572;2.652;2023-07-31T09:57:21;30.50;67.19
68450;SHT30;67758;39.572;2.652;2023-07-31T09:59:48;30.64;67.55
68450;SHT30;67758;39.572;2.652;2023-07-31T10:02:21;30.71;67.45
68450;SHT30;67758;39.572;2.652;2023-07-31T10:04:49;30.61;67.87
68450;SHT30;67758;39.572;2.652;2023-07-31T10:07:17;30.65;67.81
68450;SHT30;67758;39.572;2.652;2023-07-31T10:09:44;30.75;68.02
68450;SHT30;67758;39.572;2.652;2023-07-31T10:12:12;30.80;67.67
68450;SHT30;67758;39.572;2.652;2023-07-31T10:14:41;30.77;68.06
68450;SHT30;67758;39.572;2.652;2023-07-31T10:17:07;30.83;67.82
68450;SHT30;67758;39.572;2.652;2023-07-31T10:19:34;30.90;67.77
68450;SHT30;67758;39.572;2.652;2023-07-31T10:22:02;31.07;67.56
68450;SHT30;67758;39.572;2.652;2023-07-31T10:24:29;31.25;67.21
68450;SHT30;67758;39.572;2.652;2023-07-31T10:26:57;31.25;67.18
68450;SHT30;67758;39.572;2.652;2023-07-31T10:29:24;31.29;66.52
68450;SHT30;67758;39.572;2.652;2023-07-31T10:31:51;31.35;66.97
68450;SHT30;67758;39.572;2.652;2023-07-31T10:34:17;31.53;66.88
68450;SHT30;67758;39.572;2.652;2023-07-31T10:36:43;31.90;65.83
68450;SHT30;67758;39.572;2.652;2023-07-31T10:39:35;31.89;65.96
68450;SHT30;67758;39.572;2.652;2023-07-31T10:42:12;32.34;65.00
68450;SHT30;67758;39.572;2.652;2023-07-31T10:44:43;33.38;61.91
68450;SHT30;67758;39.572;2.652;2023-07-31T10:47:09;33.94;60.17
68450;SHT30;67758;39.572;2.652;2023-07-31T10:49:34;33.49;61.23
68450;SHT30;67758;39.572;2.652;2023-07-31T10:52:03;34.24;59.21
68450;SHT30;67758;39.572;2.652;2023-07-31T10:54:29;34.38;58.38
68450;SHT30;67758;39.572;2.652;2023-07-31T10:56:56;34.68;58.23
68450;SHT30;67758;39.572;2.652;2023-07-31T10:59:26;34.94;57.91
68450;SHT30;67758;39.572;2.652;2023-07-31T11:01:55;34.81;58.38
68450;SHT30;67758;39.572;2.652;2023-07-31T11:04:27;34.74;58.55
68450;SHT30;67758;39.572;2.652;2023-07-31T11:07:00;35.15;57.75
68450;SHT30;67758;39.572;2.652;2023-07-31T11:09:29;34.98;58.13
68450;SHT30;67758;39.572;2.652;2023-07-31T11:11:56;35.05;58.29
68450;SHT30;67758;39.572;2.652;2023-07-31T11:14:21;35.23;57.76
68450;SHT30;67758;39.572;2.652;2023-07-31T11:16:50;35.22;57.51
68450;SHT30;67758;39.572;2.652;2023-07-31T11:19:24;34.91;58.29
68450;SHT30;67758;39.572;2.652;2023-07-31T11:21:51;35.47;56.47
68450;SHT30;67758;39.572;2.652;2023-07-31T11:24:18;34.36;59.60
68450;SHT30;67758;39.572;2.652;2023-07-31T11:26:53;34.31;59.78
68450;SHT30;67758;39.572;2.652;2023-07-31T11:29:19;34.27;59.51
68450;SHT30;67758;39.572;2.652;2023-07-31T11:31:46;34.37;59.49
68450;SHT30;67758;39.572;2.652;2023-07-31T11:34:13;34.54;58.96
68450;SHT30;67758;39.572;2.652;2023-07-31T11:36:38;35.23;57.87
68450;SHT30;67758;39.572;2.652;2023-07-31T11:39:13;34.72;59.09
68450;SHT30;67758;39.572;2.652;2023-07-31T11:41:42;34.45;59.87
68450;SHT30;67758;39.572;2.652;2023-07-31T11:44:07;35.23;58.34
68450;SHT30;67758;39.572;2.652;2023-07-31T11:46:33;35.61;57.25
68450;SHT30;67758;39.572;2.652;2023-07-31T11:49:01;34.81;59.59
68450;SHT30;67758;39.572;2.652;2023-07-31T11:51:28;35.20;58.80
68450;SHT30;67758;39.572;2.652;2023-07-31T11:53:57;35.56;57.60
68450;SHT30;67758;39.572;2.652;2023-07-31T11:56:24;35.69;57.52
68450;SHT30;67758;39.572;2.652;2023-07-31T11:58:57;35.05;58.48
68450;SHT30;67758;39.572;2.652;2023-07-31T12:01:23;35.18;58.71
68450;SHT30;67758;39.572;2.652;2023-07-31T12:03:50;34.27;60.29
68450;SHT30;67758;39.572;2.652;2023-07-31T12:06:16;33.92;60.89
68450;SHT30;67758;39.572;2.652;2023-07-31T12:08:42;33.52;62.82
68450;SHT30;67758;39.572;2.652;2023-07-31T12:11:09;34.49;60.08
68450;SHT30;67758;39.572;2.652;2023-07-31T12:13:38;34.47;59.95
68450;SHT30;67758;39.572;2.652;2023-07-31T12:16:04;34.07;61.10
68450;SHT30;67758;39.572;2.652;2023-07-31T12:18:34;34.88;59.13
68450;SHT30;67758;39.572;2.652;2023-07-31T12:21:02;35.08;58.71
68450;SHT30;67758;39.572;2.652;2023-07-31T12:23:30;35.26;58.72
68450;SHT30;67758;39.572;2.652;2023-07-31T12:26:03;34.84;59.18
68450;SHT30;67758;39.572;2.652;2023-07-31T12:28:29;34.69;59.36
68450;SHT30;67758;39.572;2.652;2023-07-31T12:30:59;34.81;59.30
68450;SHT30;67758;39.572;2.652;2023-07-31T12:33:31;34.95;59.04
68450;SHT30;67758;39.572;2.652;2023-07-31T12:35:58;34.45;59.91
68450;SHT30;67758;39.572;2.652;2023-07-31T12:38:23;34.21;60.51
68450;SHT30;67758;39.572;2.652;2023-07-31T12:40:49;34.65;59.84
68450;SHT30;67758;39.572;2.652;2023-07-31T12:43:15;34.41;60.53
68450;SHT30;67758;39.572;2.652;2023-07-31T12:45:41;34.18;61.25
68450;SHT30;67758;39.572;2.652;2023-07-31T12:48:06;34.11;61.12
68450;SHT30;67758;39.572;2.652;2023-07-31T12:50:32;34.07;61.23
68450;SHT30;67758;39.572;2.652;2023-07-31T12:52:58;33.69;62.52
68450;SHT30;67758;39.572;2.652;2023-07-31T12:55:23;33.96;62.11
68450;SHT30;67758;39.572;2.652;2023-07-31T12:57:50;34.11;61.25
68450;SHT30;67758;39.572;2.652;2023-07-31T13:00:16;34.44;60.99
68450;SHT30;67758;39.572;2.652;2023-07-31T13:02:41;34.27;61.44
68450;SHT30;67758;39.572;2.652;2023-07-31T13:05:07;34.48;60.87
68450;SHT30;67758;39.572;2.652;2023-07-31T13:07:33;34.92;60.01
68450;SHT30;67758;39.572;2.652;2023-07-31T13:09:59;34.72;60.41
68450;SHT30;67758;39.572;2.652;2023-07-31T13:12:24;34.44;61.05
68450;SHT30;67758;39.572;2.652;2023-07-31T13:14:51;34.04;61.92
68450;SHT30;67758;39.572;2.652;2023-07-31T13:17:17;34.55;60.78
68450;SHT30;67758;39.572;2.652;2023-07-31T13:19:43;34.01;61.77
68450;SHT30;67758;39.572;2.652;2023-07-31T13:22:08;34.04;61.49
68450;SHT30;67758;39.572;2.652;2023-07-31T13:24:34;34.23;61.42
68450;SHT30;67758;39.572;2.652;2023-07-31T13:26:59;34.57;60.60
68450;SHT30;67758;39.572;2.652;2023-07-31T13:29:25;34.59;60.53
68450;SHT30;67758;39.572;2.652;2023-07-31T13:31:52;34.52;60.65
68450;SHT30;67758;39.572;2.652;2023-07-31T13:34:18;34.58;61.07
68450;SHT30;67758;39.572;2.652;2023-07-31T13:36:43;35.12;59.57
68450;SHT30;67758;39.572;2.652;2023-07-31T13:39:09;35.45;58.90
68450;SHT30;67758;39.572;2.652;2023-07-31T13:41:35;35.83;57.83
68450;SHT30;67758;39.572;2.652;2023-07-31T13:44:00;35.81;57.42
68450;SHT30;67758;39.572;2.652;2023-07-31T13:46:26;35.60;57.78
68450;SHT30;67758;39.572;2.652;2023-07-31T13:48:52;34.78;59.76
68450;SHT30;67758;39.572;2.652;2023-07-31T13:51:23;34.67;60.03
68450;SHT30;67758;39.572;2.652;2023-07-31T13:53:49;34.41;61.03
68450;SHT30;67758;39.572;2.652;2023-07-31T13:56:14;34.41;60.45
68450;SHT30;67758;39.572;2.652;2023-07-31T13:58:40;34.21;60.89
68450;SHT30;67758;39.572;2.652;2023-07-31T14:01:05;34.01;61.76
68450;SHT30;67758;39.572;2.652;2023-07-31T14:03:31;33.69;62.34
68450;SHT30;67758;39.572;2.652;2023-07-31T14:05:57;34.11;61.53
68450;SHT30;67758;39.572;2.652;2023-07-31T14:08:22;33.87;61.63
68450;SHT30;67758;39.572;2.652;2023-07-31T14:10:48;34.01;61.41
68450;SHT30;67758;39.572;2.652;2023-07-31T14:13:13;34.00;62.13
68450;SHT30;67758;39.572;2.652;2023-07-31T14:15:41;33.89;62.12
68450;SHT30;67758;39.572;2.652;2023-07-31T14:18:07;34.24;61.20
68450;SHT30;67758;39.572;2.652;2023-07-31T14:20:33;34.00;61.59
68450;SHT30;67758;39.572;2.652;2023-07-31T14:22:58;34.06;61.57
68450;SHT30;67758;39.572;2.652;2023-07-31T14:25:24;34.18;61.37
68450;SHT30;67758;39.572;2.652;2023-07-31T14:27:50;34.48;60.68
68450;SHT30;67758;39.572;2.652;2023-07-31T14:30:16;34.77;59.97
68450;SHT30;67758;39.572;2.652;2023-07-31T14:32:42;34.62;59.97
68450;SHT30;67758;39.572;2.652;2023-07-31T14:35:08;34.74;59.86
68450;SHT30;67758;39.572;2.652;2023-07-31T14:37:38;35.18;58.55
68450;SHT30;67758;39.572;2.652;2023-07-31T14:40:04;35.46;58.32
68450;SHT30;67758;39.572;2.652;2023-07-31T14:42:30;35.12;59.40
68450;SHT30;67758;39.572;2.652;2023-07-31T14:44:55;35.66;58.13
68450;SHT30;67758;39.572;2.652;2023-07-31T14:47:21;35.72;57.89
68450;SHT30;67758;39.572;2.652;2023-07-31T14:49:46;36.14;56.99
68450;SHT30;67758;39.572;2.652;2023-07-31T14:52:12;35.45;58.28
68450;SHT30;67758;39.572;2.652;2023-07-31T14:54:38;35.54;58.07
68450;SHT30;67758;39.572;2.652;2023-07-31T14:57:03;36.05;56.77
68450;SHT30;67758;39.572;2.652;2023-07-31T14:59:29;35.96;57.58
68450;SHT30;67758;39.572;2.652;2023-07-31T15:01:55;36.01;57.14
68450;SHT30;67758;39.572;2.652;2023-07-31T15:04:20;35.61;58.16
68450;SHT30;67758;39.572;2.652;2023-07-31T15:06:47;35.76;58.06
68450;SHT30;67758;39.572;2.652;2023-07-31T15:09:13;35.80;58.04
68450;SHT30;67758;39.572;2.652;2023-07-31T15:11:38;36.32;56.79
68450;SHT30;67758;39.572;2.652;2023-07-31T15:14:04;35.80;57.99
68450;SHT30;67758;39.572;2.652;2023-07-31T15:16:29;36.27;57.35
68450;SHT30;67758;39.572;2.652;2023-07-31T15:18:56;35.67;58.11
68450;SHT30;67758;39.572;2.652;2023-07-31T15:21:22;35.63;58.66
68450;SHT30;67758;39.572;2.652;2023-07-31T15:23:48;35.28;59.64
68450;SHT30;67758;39.572;2.652;2023-07-31T15:26:14;35.35;59.85
68450;SHT30;67758;39.572;2.652;2023-07-31T15:28:39;34.79;61.21
68450;SHT30;67758;39.572;2.652;2023-07-31T15:31:05;35.19;60.64
68450;SHT30;67758;39.572;2.652;2023-07-31T15:33:30;35.79;59.48
68450;SHT30;67758;39.572;2.652;2023-07-31T15:35:56;35.03;61.05